createdAt,value
2017-12-31T00:00:29.403Z,12.80
2017-12-31T00:02:57.042Z,12.80
2017-12-31T00:05:25.294Z,12.70
2017-12-31T00:07:54.374Z,12.70
2017-12-31T00:10:21.966Z,12.70
2017-12-31T00:12:50.493Z,12.70
2017-12-31T00:15:18.913Z,12.70
2017-12-31T00:17:47.164Z,12.70
2017-12-31T00:20:14.800Z,12.60
2017-12-31T00:22:42.368Z,12.50
2017-12-31T00:25:10.003Z,12.50
2017-12-31T00:27:37.534Z,12.50
2017-12-31T00:30:05.167Z,12.40
2017-12-31T00:32:33.598Z,12.50
2017-12-31T00:35:02.400Z,12.50
2017-12-31T00:37:31.657Z,12.50
2017-12-31T00:39:59.804Z,12.40
2017-12-31T00:42:28.366Z,12.40
2017-12-31T00:44:56.019Z,12.30
2017-12-31T00:47:24.493Z,12.40
2017-12-31T00:49:52.110Z,12.30
2017-12-31T00:52:20.656Z,12.40
2017-12-31T00:54:48.215Z,12.40
2017-12-31T00:57:15.845Z,12.40
2017-12-31T00:59:43.405Z,12.30
2017-12-31T01:02:13.805Z,12.30
2017-12-31T01:04:42.376Z,12.20
2017-12-31T01:07:09.991Z,12.10
2017-12-31T01:09:38.546Z,12.10
2017-12-31T01:12:09.356Z,12.10
2017-12-31T01:14:36.970Z,12.10
2017-12-31T01:17:05.312Z,12.10
2017-12-31T01:19:35.517Z,12.10
2017-12-31T01:22:05.389Z,12.10
2017-12-31T01:24:33.946Z,12.20
2017-12-31T01:27:01.495Z,12.10
2017-12-31T01:29:29.115Z,12.20
2017-12-31T01:31:58.658Z,12.10
2017-12-31T01:34:27.063Z,12.10
2017-12-31T01:36:55.425Z,12.10
2017-12-31T01:39:24.776Z,12.20
2017-12-31T01:41:52.357Z,12.20
2017-12-31T01:44:19.923Z,12.20
2017-12-31T01:46:47.458Z,12.20
2017-12-31T01:49:15.833Z,12.20
2017-12-31T01:51:43.363Z,12.20
2017-12-31T01:54:10.894Z,12.20
2017-12-31T01:56:40.055Z,12.20
2017-12-31T01:59:07.595Z,12.20
2017-12-31T02:01:35.179Z,12.20
2017-12-31T02:04:02.742Z,12.20
2017-12-31T02:06:30.306Z,12.20
2017-12-31T02:08:59.755Z,12.20
2017-12-31T02:11:27.337Z,12.20
2017-12-31T02:13:56.047Z,12.20
2017-12-31T02:16:23.630Z,12.20
2017-12-31T02:18:51.986Z,12.20
2017-12-31T02:21:19.553Z,12.20
2017-12-31T02:23:47.706Z,12.10
2017-12-31T02:26:16.398Z,12.20
2017-12-31T02:28:43.987Z,12.20
2017-12-31T02:31:12.334Z,12.30
2017-12-31T02:33:39.877Z,12.20
2017-12-31T02:36:08.667Z,12.30
2017-12-31T02:38:36.249Z,12.20
2017-12-31T02:41:04.971Z,12.20
2017-12-31T02:43:32.551Z,12.20
2017-12-31T02:46:01.108Z,12.30
2017-12-31T02:48:29.671Z,12.30
2017-12-31T02:50:57.214Z,12.40
2017-12-31T02:53:24.804Z,12.40
2017-12-31T02:55:52.351Z,12.30
2017-12-31T02:58:19.942Z,12.30
2017-12-31T03:00:47.479Z,12.30
2017-12-31T03:03:16.231Z,12.30
2017-12-31T03:05:43.783Z,12.30
2017-12-31T03:08:12.302Z,12.30
2017-12-31T03:10:39.839Z,12.30
2017-12-31T03:13:07.378Z,12.40
2017-12-31T03:15:35.714Z,12.30
2017-12-31T03:18:03.257Z,12.30
2017-12-31T03:20:30.835Z,12.30
2017-12-31T03:22:58.370Z,12.40
2017-12-31T03:25:26.878Z,12.30
2017-12-31T03:27:55.831Z,12.40
2017-12-31T03:30:23.422Z,12.30
2017-12-31T03:32:51.759Z,12.40
2017-12-31T03:35:19.624Z,12.40
2017-12-31T03:37:47.927Z,12.40
2017-12-31T03:40:16.897Z,12.40
2017-12-31T03:42:44.667Z,12.40
2017-12-31T03:45:13.048Z,12.40
2017-12-31T03:47:41.391Z,12.40
2017-12-31T03:50:10.372Z,12.40
2017-12-31T03:52:37.915Z,12.40
2017-12-31T03:55:06.300Z,12.50
2017-12-31T03:57:33.830Z,12.50
2017-12-31T04:00:02.161Z,12.50
2017-12-31T04:02:30.895Z,12.50
2017-12-31T04:04:59.027Z,12.50
2017-12-31T04:07:26.572Z,12.50
2017-12-31T04:09:54.941Z,12.50
2017-12-31T04:12:23.214Z,12.50
2017-12-31T04:14:51.732Z,12.50
2017-12-31T04:17:19.352Z,12.60
2017-12-31T04:19:47.776Z,12.60
2017-12-31T04:22:16.158Z,12.50
2017-12-31T04:24:43.741Z,12.50
2017-12-31T04:27:12.056Z,12.50
2017-12-31T04:29:41.558Z,12.50
2017-12-31T04:32:09.772Z,12.50
2017-12-31T04:34:37.345Z,12.50
2017-12-31T04:37:04.874Z,12.50
2017-12-31T04:39:32.475Z,12.50
2017-12-31T04:42:00.020Z,12.50
2017-12-31T04:44:27.553Z,12.50
2017-12-31T04:46:55.906Z,12.50
2017-12-31T04:49:23.435Z,12.50
2017-12-31T04:51:51.020Z,12.50
2017-12-31T04:54:19.277Z,12.60
2017-12-31T04:56:47.611Z,12.70
2017-12-31T04:59:15.160Z,12.70
2017-12-31T05:01:42.726Z,12.60
2017-12-31T05:04:11.563Z,12.60
2017-12-31T05:06:40.117Z,12.60
2017-12-31T05:09:09.098Z,12.70
2017-12-31T05:11:36.679Z,12.70
2017-12-31T05:14:04.219Z,12.80
2017-12-31T05:16:32.334Z,12.70
2017-12-31T05:19:00.667Z,12.60
2017-12-31T05:21:29.204Z,12.60
2017-12-31T05:23:57.678Z,12.50
2017-12-31T05:26:26.067Z,12.60
2017-12-31T05:28:54.170Z,12.60
2017-12-31T05:31:21.754Z,12.70
2017-12-31T05:33:49.807Z,12.60
2017-12-31T05:36:17.384Z,12.70
2017-12-31T05:38:45.551Z,12.80
2017-12-31T05:41:13.140Z,12.70
2017-12-31T05:43:41.819Z,12.60
2017-12-31T05:46:10.345Z,12.60
2017-12-31T05:48:37.905Z,12.60
2017-12-31T05:51:06.114Z,12.60
2017-12-31T05:53:33.647Z,12.70
2017-12-31T05:56:03.162Z,12.70
2017-12-31T05:58:30.901Z,12.60
2017-12-31T06:00:58.429Z,12.50
2017-12-31T06:03:26.003Z,12.60
2017-12-31T06:05:55.012Z,12.60
2017-12-31T06:08:22.603Z,12.70
2017-12-31T06:10:50.180Z,12.70
2017-12-31T06:13:17.723Z,12.70
2017-12-31T06:15:45.992Z,12.70
2017-12-31T06:18:14.331Z,12.70
2017-12-31T06:20:41.875Z,12.70
2017-12-31T06:23:10.391Z,12.70
2017-12-31T06:25:38.267Z,12.60
2017-12-31T06:28:05.844Z,12.60
2017-12-31T06:30:33.393Z,12.60
2017-12-31T06:33:01.799Z,12.60
2017-12-31T06:35:29.347Z,12.50
2017-12-31T06:37:57.699Z,12.60
2017-12-31T06:40:26.008Z,12.60
2017-12-31T06:42:53.588Z,12.60
2017-12-31T06:45:22.764Z,12.60
2017-12-31T06:47:51.251Z,12.60
2017-12-31T06:50:19.619Z,12.60
2017-12-31T06:52:47.198Z,12.60
2017-12-31T06:55:15.666Z,12.50
2017-12-31T06:57:44.004Z,12.70
2017-12-31T07:00:11.554Z,12.60
2017-12-31T07:02:39.655Z,12.60
2017-12-31T07:05:07.179Z,12.60
2017-12-31T07:07:35.515Z,12.50
2017-12-31T07:10:05.812Z,12.50
2017-12-31T07:12:34.162Z,12.60
2017-12-31T07:15:01.687Z,12.60
2017-12-31T07:17:29.282Z,12.60
2017-12-31T07:19:56.855Z,12.70
2017-12-31T07:22:24.454Z,12.70
2017-12-31T07:24:52.811Z,12.70
2017-12-31T07:27:20.438Z,12.70
2017-12-31T07:29:48.918Z,12.60
2017-12-31T07:32:17.395Z,12.60
2017-12-31T07:34:45.895Z,12.70
2017-12-31T07:37:13.422Z,12.70
2017-12-31T07:39:42.711Z,12.80
2017-12-31T07:42:10.841Z,12.80
2017-12-31T07:44:38.398Z,12.80
2017-12-31T07:47:06.737Z,12.80
2017-12-31T07:49:35.120Z,12.80
2017-12-31T07:52:03.764Z,12.80
2017-12-31T07:54:32.577Z,12.90
2017-12-31T07:59:32.855Z,12.90
2017-12-31T08:02:00.458Z,12.90
2017-12-31T08:04:27.991Z,13.00
2017-12-31T08:06:56.291Z,13.00
2017-12-31T08:09:25.163Z,12.90
2017-12-31T08:11:52.741Z,12.90
2017-12-31T08:14:20.955Z,12.90
2017-12-31T08:16:49.312Z,13.10
2017-12-31T08:19:17.852Z,13.10
2017-12-31T08:21:46.098Z,13.20
2017-12-31T08:24:15.152Z,13.10
2017-12-31T08:26:43.314Z,13.20
2017-12-31T08:29:11.649Z,13.30
2017-12-31T08:31:39.903Z,13.30
2017-12-31T08:34:08.250Z,13.40
2017-12-31T08:36:35.835Z,13.40
2017-12-31T08:39:03.419Z,13.30
2017-12-31T08:41:31.739Z,13.30
2017-12-31T08:44:00.475Z,13.40
2017-12-31T08:46:28.014Z,13.40
2017-12-31T08:48:55.606Z,13.40
2017-12-31T08:51:23.130Z,13.40
2017-12-31T08:53:50.708Z,13.40
2017-12-31T08:56:18.231Z,13.50
2017-12-31T08:58:46.227Z,13.40
2017-12-31T09:01:14.308Z,13.50
2017-12-31T09:03:44.579Z,13.40
2017-12-31T09:06:12.835Z,13.50
2017-12-31T09:08:41.225Z,13.60
2017-12-31T09:11:08.763Z,13.60
2017-12-31T09:13:36.585Z,13.60
2017-12-31T09:16:05.061Z,13.60
2017-12-31T09:18:33.435Z,13.70
2017-12-31T09:21:00.969Z,13.80
2017-12-31T09:23:29.179Z,13.70
2017-12-31T09:25:57.484Z,13.80
2017-12-31T09:28:25.391Z,13.80
2017-12-31T09:30:52.980Z,13.90
2017-12-31T09:33:20.561Z,13.80
2017-12-31T09:35:49.628Z,13.80
2017-12-31T09:38:18.366Z,13.80
2017-12-31T09:40:46.299Z,13.90
2017-12-31T09:43:19.563Z,13.90
2017-12-31T09:45:48.266Z,14.00
2017-12-31T09:48:17.319Z,14.10
2017-12-31T09:50:45.795Z,14.10
2017-12-31T09:53:14.194Z,14.00
2017-12-31T09:55:47.263Z,14.10
2017-12-31T09:58:14.853Z,14.00
2017-12-31T10:00:42.472Z,14.00
2017-12-31T10:03:10.867Z,14.10
2017-12-31T10:05:39.258Z,14.10
2017-12-31T10:08:09.727Z,14.20
2017-12-31T10:10:38.072Z,14.30
2017-12-31T10:13:06.985Z,14.30
2017-12-31T10:15:34.536Z,14.30
2017-12-31T10:18:03.175Z,14.40
2017-12-31T10:20:35.853Z,14.40
2017-12-31T10:23:04.247Z,14.50
2017-12-31T10:25:32.604Z,14.40
2017-12-31T10:28:01.584Z,14.40
2017-12-31T10:30:29.158Z,14.50
2017-12-31T10:32:57.605Z,14.50
2017-12-31T10:35:25.220Z,14.50
2017-12-31T10:37:56.396Z,14.70
2017-12-31T10:40:26.224Z,14.70
2017-12-31T10:42:53.763Z,14.80
2017-12-31T10:45:22.025Z,14.80
2017-12-31T10:47:49.581Z,14.80
2017-12-31T10:50:18.931Z,14.80
2017-12-31T10:52:46.475Z,14.70
2017-12-31T10:55:14.829Z,14.80
2017-12-31T10:57:43.370Z,14.80
2017-12-31T11:00:10.951Z,14.80
2017-12-31T11:02:40.142Z,14.80
2017-12-31T11:05:08.499Z,14.90
2017-12-31T11:07:36.812Z,15.00
2017-12-31T11:10:04.983Z,14.90
2017-12-31T11:12:33.463Z,15.10
2017-12-31T11:15:01.048Z,15.10
2017-12-31T11:17:28.583Z,15.10
2017-12-31T11:19:57.110Z,15.10
2017-12-31T11:22:24.648Z,15.10
2017-12-31T11:24:52.224Z,15.10
2017-12-31T11:27:19.789Z,15.10
2017-12-31T11:29:48.180Z,15.10
2017-12-31T11:32:16.859Z,15.10
2017-12-31T11:34:46.966Z,15.00
2017-12-31T11:37:15.991Z,15.10
2017-12-31T11:39:44.339Z,15.10
2017-12-31T11:42:12.090Z,15.10
2017-12-31T11:44:39.680Z,15.20
2017-12-31T11:47:08.413Z,15.20
2017-12-31T11:49:36.628Z,15.20
2017-12-31T11:52:07.783Z,15.30
2017-12-31T11:54:37.012Z,15.40
2017-12-31T11:57:04.659Z,15.30
2017-12-31T11:59:33.914Z,15.50
2017-12-31T12:02:01.835Z,15.50
2017-12-31T12:04:30.425Z,15.50
2017-12-31T12:06:58.008Z,15.50
2017-12-31T12:09:26.192Z,15.60
2017-12-31T12:11:53.812Z,15.70
2017-12-31T12:14:22.255Z,15.70
2017-12-31T12:16:50.728Z,15.80
2017-12-31T12:19:19.196Z,15.80
2017-12-31T12:21:46.775Z,15.70
2017-12-31T12:24:14.315Z,15.70
2017-12-31T12:26:43.514Z,15.70
2017-12-31T12:29:11.114Z,15.70
2017-12-31T12:31:39.450Z,15.60
2017-12-31T12:34:06.979Z,15.60
2017-12-31T12:36:35.372Z,15.50
2017-12-31T12:39:04.540Z,15.40
2017-12-31T12:41:32.081Z,15.40
2017-12-31T12:44:00.909Z,15.30
2017-12-31T12:46:29.019Z,15.20
2017-12-31T12:48:57.132Z,15.20
2017-12-31T12:51:25.483Z,15.10
2017-12-31T12:53:54.012Z,15.00
2017-12-31T12:56:22.324Z,14.90
2017-12-31T12:58:49.907Z,14.90
2017-12-31T13:01:17.438Z,15.00
2017-12-31T13:03:45.028Z,15.10
2017-12-31T13:06:14.236Z,15.20
2017-12-31T13:08:43.530Z,15.20
2017-12-31T13:11:11.078Z,15.20
2017-12-31T13:13:39.813Z,15.30
2017-12-31T13:16:07.350Z,15.30
2017-12-31T13:18:34.993Z,15.30
2017-12-31T13:21:03.728Z,15.40
2017-12-31T13:23:31.331Z,15.40
2017-12-31T13:25:58.868Z,15.30
2017-12-31T13:28:27.087Z,15.20
2017-12-31T13:30:54.753Z,15.20
2017-12-31T13:33:23.163Z,15.20
2017-12-31T13:35:50.743Z,15.20
2017-12-31T13:38:20.293Z,15.30
2017-12-31T13:40:48.869Z,15.20
2017-12-31T13:43:17.864Z,15.30
2017-12-31T13:45:47.433Z,15.30
2017-12-31T13:48:15.006Z,15.20
2017-12-31T13:50:42.629Z,15.20
2017-12-31T13:53:10.169Z,15.20
2017-12-31T13:55:37.758Z,15.10
2017-12-31T13:58:05.296Z,15.10
2017-12-31T14:00:32.872Z,15.00
2017-12-31T14:03:00.446Z,15.10
2017-12-31T14:05:27.983Z,15.10
2017-12-31T14:07:56.369Z,14.70
2017-12-31T14:10:24.767Z,14.70
2017-12-31T14:12:53.145Z,14.60
2017-12-31T14:15:21.521Z,14.50
2017-12-31T14:17:49.674Z,14.50
2017-12-31T14:20:19.011Z,14.50
2017-12-31T14:22:46.601Z,14.40
2017-12-31T14:25:15.177Z,14.30
2017-12-31T14:27:42.719Z,14.10
2017-12-31T14:30:10.295Z,14.00
2017-12-31T14:32:37.922Z,14.00
2017-12-31T14:35:05.569Z,13.90
2017-12-31T14:37:33.899Z,13.80
2017-12-31T14:40:03.513Z,13.80
2017-12-31T14:42:31.723Z,13.60
2017-12-31T14:45:01.056Z,13.30
2017-12-31T14:47:28.595Z,13.30
2017-12-31T14:49:59.177Z,13.30
2017-12-31T14:52:26.758Z,13.20
2017-12-31T14:54:54.387Z,13.10
2017-12-31T14:57:24.482Z,12.90
2017-12-31T14:59:53.829Z,12.90
2017-12-31T15:02:22.667Z,12.90
2017-12-31T15:04:53.360Z,12.80
2017-12-31T15:10:17.886Z,12.40
2017-12-31T15:12:48.400Z,12.30
2017-12-31T15:15:20.794Z,12.30
2017-12-31T15:17:53.289Z,12.10
2017-12-31T15:20:22.204Z,12.20
2017-12-31T15:22:51.384Z,12.00
2017-12-31T15:25:18.991Z,12.00
2017-12-31T15:27:47.335Z,11.90
2017-12-31T15:33:26.904Z,11.70
2017-12-31T15:35:57.323Z,11.70
2017-12-31T15:38:24.885Z,11.50
2017-12-31T15:40:53.450Z,11.50
2017-12-31T15:43:21.849Z,11.50
2017-12-31T15:45:56.885Z,11.30
2017-12-31T15:48:26.574Z,11.20
2017-12-31T15:50:56.432Z,11.10
2017-12-31T15:53:29.404Z,11.00
2017-12-31T15:56:26.414Z,11.00
2017-12-31T15:58:57.497Z,11.00
2017-12-31T16:01:37.161Z,10.90
2017-12-31T16:04:07.009Z,10.80
2017-12-31T16:06:44.714Z,10.80
2017-12-31T16:09:12.360Z,10.70
2017-12-31T16:14:34.076Z,10.60
2017-12-31T16:17:05.076Z,10.60
2017-12-31T16:22:09.056Z,10.50
2017-12-31T16:27:28.545Z,10.40
2017-12-31T16:29:59.591Z,10.40
2017-12-31T16:32:29.358Z,10.20
2017-12-31T16:34:57.694Z,10.10
2017-12-31T16:37:31.607Z,10.10
2017-12-31T16:40:05.415Z,10.10
2017-12-31T16:42:35.330Z,10.10
2017-12-31T16:45:15.494Z,10.10
2017-12-31T16:48:04.441Z,10.00
2017-12-31T16:53:21.723Z,9.90
2017-12-31T16:55:55.111Z,9.90
2017-12-31T16:58:25.303Z,9.80
2017-12-31T17:00:57.402Z,9.80
2017-12-31T17:03:33.936Z,9.80
2017-12-31T17:09:13.853Z,9.60
2017-12-31T17:12:00.576Z,9.70
2017-12-31T17:14:30.155Z,9.60
2017-12-31T17:17:00.279Z,9.60
2017-12-31T17:19:38.878Z,9.70
2017-12-31T17:22:19.491Z,9.70
2017-12-31T17:27:25.347Z,9.70
2017-12-31T17:29:53.862Z,9.60
2017-12-31T17:32:25.687Z,9.70
2017-12-31T17:35:13.592Z,9.60
2017-12-31T17:37:42.692Z,9.70
2017-12-31T17:40:17.574Z,9.60
2017-12-31T17:42:48.206Z,9.60
2017-12-31T17:45:17.280Z,9.60
2017-12-31T17:47:51.383Z,9.70
2017-12-31T17:50:23.415Z,9.60
2017-12-31T17:55:48.247Z,9.50
2017-12-31T17:58:19.100Z,9.50
2017-12-31T18:00:54.991Z,9.50
2017-12-31T18:03:24.231Z,9.50
2017-12-31T18:05:55.031Z,9.50
2017-12-31T18:08:30.097Z,9.40
2017-12-31T18:10:59.577Z,9.40
2017-12-31T18:13:33.117Z,9.40
2017-12-31T18:16:02.045Z,9.30
2017-12-31T18:21:09.559Z,9.30
2017-12-31T18:26:30.268Z,9.40
2017-12-31T18:29:07.965Z,9.30
2017-12-31T18:31:40.199Z,9.50
2017-12-31T18:34:14.622Z,9.60
2017-12-31T18:36:45.864Z,9.60
2017-12-31T18:39:16.215Z,9.60
2017-12-31T18:41:51.014Z,9.60
2017-12-31T18:44:22.227Z,9.50
2017-12-31T18:46:57.681Z,9.60
2017-12-31T18:49:33.785Z,9.60
2017-12-31T18:52:07.274Z,9.60
2017-12-31T18:54:36.460Z,9.70
2017-12-31T18:57:15.316Z,9.70
2017-12-31T18:59:46.174Z,9.80
2017-12-31T19:02:16.894Z,9.80
2017-12-31T19:04:45.652Z,9.80
2017-12-31T19:07:17.677Z,9.90
2017-12-31T19:09:56.443Z,10.00
2017-12-31T19:12:28.054Z,10.30
2017-12-31T19:15:03.597Z,10.30
2017-12-31T19:17:42.744Z,10.30
2017-12-31T19:20:12.463Z,10.40
2017-12-31T19:22:46.066Z,10.40
2017-12-31T19:25:20.431Z,10.40
2017-12-31T19:27:58.735Z,10.40
2017-12-31T19:30:29.403Z,10.30
2017-12-31T19:35:57.259Z,10.40
2017-12-31T19:38:33.794Z,10.40
2017-12-31T19:41:01.352Z,10.40
2017-12-31T19:43:29.486Z,10.50
2017-12-31T19:46:00.572Z,10.40
2017-12-31T19:48:28.960Z,10.30
2017-12-31T19:50:58.695Z,10.40
2017-12-31T19:53:30.390Z,10.50
2017-12-31T19:56:00.875Z,10.50
2017-12-31T19:58:30.856Z,10.40
2017-12-31T20:00:58.607Z,10.40
2017-12-31T20:03:27.904Z,10.30
2017-12-31T20:05:55.496Z,10.30
2017-12-31T20:08:24.697Z,10.20
2017-12-31T20:10:53.942Z,10.40
2017-12-31T20:13:21.564Z,10.30
2017-12-31T20:15:49.898Z,10.40
2017-12-31T20:18:19.083Z,10.30
2017-12-31T20:20:46.656Z,10.30
2017-12-31T20:23:14.228Z,10.30
2017-12-31T20:25:41.818Z,10.40
2017-12-31T20:28:11.444Z,10.40
2017-12-31T20:30:39.831Z,10.70
2017-12-31T20:33:08.754Z,10.80
2017-12-31T20:35:36.322Z,10.90
2017-12-31T20:38:05.535Z,11.00
2017-12-31T20:40:33.157Z,11.00
2017-12-31T20:43:02.651Z,11.00
2017-12-31T20:45:32.081Z,10.90
2017-12-31T20:48:00.840Z,10.90
2017-12-31T20:50:29.747Z,11.30
2017-12-31T20:53:02.071Z,11.20
2017-12-31T20:55:31.088Z,11.30
2017-12-31T20:57:58.666Z,11.30
2017-12-31T21:00:26.549Z,11.10
2017-12-31T21:02:55.246Z,11.10
2017-12-31T21:05:23.079Z,11.00
2017-12-31T21:07:51.257Z,11.10
2017-12-31T21:10:19.599Z,11.00
2017-12-31T21:12:48.040Z,10.90
2017-12-31T21:15:17.373Z,10.90
2017-12-31T21:17:44.959Z,11.00
2017-12-31T21:20:13.355Z,11.10
2017-12-31T21:22:40.938Z,11.30
2017-12-31T21:25:08.521Z,11.30
2017-12-31T21:27:36.838Z,11.40
2017-12-31T21:30:05.007Z,11.60
2017-12-31T21:32:34.570Z,11.80
2017-12-31T21:35:03.675Z,11.90
2017-12-31T21:37:32.780Z,11.90
2017-12-31T21:40:01.160Z,12.00
2017-12-31T21:42:29.501Z,12.20
2017-12-31T21:44:58.027Z,12.10
2017-12-31T21:47:25.617Z,12.30
2017-12-31T21:49:53.196Z,12.40
2017-12-31T21:52:21.581Z,12.40
2017-12-31T21:54:49.952Z,12.30
2017-12-31T21:57:21.007Z,12.40
2017-12-31T21:59:49.388Z,12.50
2017-12-31T22:02:17.003Z,12.50
2017-12-31T22:04:45.399Z,12.70
2017-12-31T22:07:13.751Z,12.70
2017-12-31T22:09:42.158Z,12.70
2017-12-31T22:12:12.530Z,12.80
2017-12-31T22:14:41.677Z,12.90
2017-12-31T22:17:09.255Z,12.90
2017-12-31T22:19:37.758Z,12.90
2017-12-31T22:22:05.335Z,12.90
2017-12-31T22:24:32.900Z,13.00
2017-12-31T22:27:00.430Z,12.90
2017-12-31T22:29:28.801Z,13.00
2017-12-31T22:31:57.281Z,13.00
2017-12-31T22:34:26.768Z,13.00
2017-12-31T22:36:55.278Z,13.00
2017-12-31T22:39:23.849Z,13.00
2017-12-31T22:41:51.438Z,13.00
2017-12-31T22:44:19.016Z,13.00
2017-12-31T22:46:46.593Z,13.00
2017-12-31T22:49:18.496Z,13.00
2017-12-31T22:51:48.702Z,13.00
2017-12-31T22:54:17.886Z,13.00
2017-12-31T22:56:46.423Z,12.90
2017-12-31T22:59:15.445Z,13.00
2017-12-31T23:01:44.005Z,13.00
2017-12-31T23:04:12.266Z,13.00
2017-12-31T23:06:41.146Z,12.90
2017-12-31T23:09:08.780Z,12.80
2017-12-31T23:11:37.251Z,12.80
2017-12-31T23:14:05.648Z,12.80
2017-12-31T23:16:33.273Z,12.70
2017-12-31T23:19:00.882Z,12.70
2017-12-31T23:21:28.506Z,12.60
2017-12-31T23:23:56.942Z,12.50
2017-12-31T23:26:25.795Z,12.50
2017-12-31T23:28:53.367Z,12.40
2017-12-31T23:31:21.000Z,12.30
2017-12-31T23:33:51.324Z,12.30
2017-12-31T23:36:20.216Z,12.00
2017-12-31T23:38:48.726Z,12.00
2017-12-31T23:41:17.068Z,11.90
2017-12-31T23:43:45.384Z,11.90
2017-12-31T23:46:14.165Z,11.70
2017-12-31T23:48:41.745Z,11.80
2017-12-31T23:51:09.376Z,11.70
2017-12-31T23:53:39.523Z,11.70
2017-12-31T23:56:07.371Z,11.70
2017-12-31T23:58:36.513Z,11.40
